TimeEST,TemperatureF,Dew PointF,Humidity,Sea Level PressureIn,VisibilityMPH,Wind Direction,Wind SpeedMPH,Gust SpeedMPH,PrecipitationIn,Events,Conditions,WindDirDegrees,DateUTC
12:54 AM,46.0,19.0,34,30.33,10.0,WSW,4.6,-,N/A,,Clear,240,2012-12-31 05:54:00
1:54 AM,46.9,19.9,34,30.33,10.0,WNW,3.5,-,N/A,,Clear,290,2012-12-31 06:54:00
2:54 AM,46.9,19.0,33,30.33,10.0,WNW,3.5,-,N/A,,Clear,290,2012-12-31 07:54:00
3:54 AM,48.0,19.9,33,30.30,10.0,WNW,4.6,-,N/A,,Clear,290,2012-12-31 08:54:00
4:54 AM,48.0,21.0,34,30.29,10.0,Variable,4.6,-,N/A,,Clear,0,2012-12-31 09:54:00
5:54 AM,41.0,19.0,41,30.29,10.0,Calm,Calm,-,N/A,,Clear,0,2012-12-31 10:54:00
6:54 AM,46.9,19.9,34,30.29,10.0,Variable,4.6,-,N/A,,Clear,0,2012-12-31 11:54:00
7:54 AM,45.0,21.0,39,30.29,10.0,WSW,4.6,-,N/A,,Clear,250,2012-12-31 12:54:00
8:54 AM,51.1,21.0,31,30.29,10.0,WSW,4.6,-,N/A,,Clear,240,2012-12-31 13:54:00
9:54 AM,48.0,21.0,34,30.28,10.0,Variable,3.5,-,N/A,,Clear,0,2012-12-31 14:54:00
10:54 AM,52.0,21.9,31,30.26,10.0,SSW,6.9,-,N/A,,Clear,210,2012-12-31 15:54:00
11:54 AM,39.0,23.0,53,30.22,10.0,Variable,4.6,-,N/A,,Clear,0,2012-12-31 16:54:00
12:54 PM,37.9,28.0,68,30.18,10.0,SE,8.1,-,N/A,,Clear,130,2012-12-31 17:54:00
1:54 PM,41.0,27.0,57,30.13,10.0,South,4.6,-,N/A,,Clear,180,2012-12-31 18:54:00
2:54 PM,39.9,27.0,60,30.14,10.0,South,6.9,-,N/A,,Clear,170,2012-12-31 19:54:00
3:54 PM,39.9,28.0,63,30.12,10.0,SSE,9.2,-,N/A,,Overcast,160,2012-12-31 20:54:00
4:54 PM,41.0,28.0,60,30.11,10.0,SSW,4.6,-,N/A,,Overcast,210,2012-12-31 21:54:00
5:54 PM,41.0,23.0,49,30.09,10.0,Variable,3.5,-,N/A,,Overcast,0,2012-12-31 22:54:00
6:54 PM,41.0,23.0,49,30.09,10.0,SW,5.8,-,N/A,,Overcast,220,2012-12-31 23:54:00
7:54 PM,39.9,24.1,53,30.06,10.0,Calm,Calm,-,N/A,,Overcast,0,2013-01-01 00:54:00
8:54 PM,41.0,24.1,51,30.04,10.0,WSW,3.5,-,N/A,,Overcast,240,2013-01-01 01:54:00
9:54 PM,41.0,24.1,51,30.03,10.0,WSW,4.6,-,N/A,,Overcast,250,2013-01-01 02:54:00
10:54 PM,42.1,23.0,47,30.03,10.0,WSW,6.9,-,N/A,,Mostly Cloudy,250,2013-01-01 03:54:00
11:54 PM,42.1,23.0,47,30.01,10.0,West,4.6,-,N/A,,Scattered Clouds,260,2013-01-01 04:54:00